createdAt,value
2023-03-08T00:01:27.229Z,79.12
2023-03-08T00:03:57.865Z,79.16
2023-03-08T00:06:27.532Z,79.60
2023-03-08T00:08:58.173Z,79.01
2023-03-08T00:11:27.532Z,79.52
2023-03-08T00:13:57.761Z,78.94
2023-03-08T00:16:26.525Z,78.63
2023-03-08T00:18:54.901Z,78.17
2023-03-08T00:21:23.606Z,78.35
2023-03-08T00:23:54.565Z,78.05
2023-03-08T00:26:23.096Z,78.25
2023-03-08T00:28:52.589Z,77.70
2023-03-08T00:31:23.122Z,77.87
2023-03-08T00:33:55.384Z,78.22
2023-03-08T00:36:24.194Z,78.03
2023-03-08T00:38:52.618Z,77.85
2023-03-08T00:41:21.307Z,77.39
2023-03-08T00:43:50.313Z,78.04
2023-03-08T00:46:18.672Z,78.66
2023-03-08T00:48:48.539Z,77.78
2023-03-08T00:51:19.584Z,77.53
2023-03-08T00:53:48.706Z,77.76
2023-03-08T00:56:17.428Z,78.90
2023-03-08T00:58:47.157Z,78.48
2023-03-08T01:01:18.075Z,79.48
2023-03-08T01:03:50.332Z,78.99
2023-03-08T01:06:18.948Z,78.64
2023-03-08T01:08:47.205Z,79.39
2023-03-08T01:11:22.392Z,79.12
2023-03-08T01:13:51.948Z,78.30
2023-03-08T01:16:23.020Z,78.34
2023-03-08T01:18:56.639Z,78.46
2023-03-08T01:21:26.102Z,78.53
2023-03-08T01:23:55.175Z,78.47
2023-03-08T01:26:27.367Z,77.90
2023-03-08T01:28:59.026Z,78.87
2023-03-08T01:31:31.456Z,78.47
2023-03-08T01:34:02.578Z,79.07
2023-03-08T01:36:30.952Z,78.52
2023-03-08T01:39:02.338Z,78.23
2023-03-08T01:41:33.109Z,78.42
2023-03-08T01:44:02.650Z,78.58
2023-03-08T01:46:32.120Z,78.85
2023-03-08T01:49:12.707Z,79.04
2023-03-08T01:51:45.705Z,78.37
2023-03-08T01:54:18.645Z,79.15
2023-03-08T01:56:50.631Z,79.00
2023-03-08T01:59:22.035Z,79.11
2023-03-08T02:01:51.164Z,78.38
2023-03-08T02:04:22.000Z,78.84
2023-03-08T02:06:50.637Z,79.12
2023-03-08T02:09:23.449Z,78.52
2023-03-08T02:11:55.052Z,79.01
2023-03-08T02:14:23.494Z,78.44
2023-03-08T02:16:53.419Z,79.21
2023-03-08T02:19:30.411Z,79.21
2023-03-08T02:21:58.844Z,78.18
2023-03-08T02:24:28.524Z,78.53
2023-03-08T02:27:03.323Z,77.72
2023-03-08T02:29:31.831Z,78.46
2023-03-08T02:32:00.134Z,78.95
2023-03-08T02:34:28.596Z,78.16
2023-03-08T02:36:56.984Z,77.75
2023-03-08T02:39:25.406Z,77.97
2023-03-08T02:41:57.959Z,78.83
2023-03-08T02:44:26.367Z,78.82
2023-03-08T02:46:54.998Z,78.87
2023-03-08T02:49:23.500Z,78.78
2023-03-08T02:51:53.374Z,78.85
2023-03-08T02:54:22.668Z,79.25
2023-03-08T02:56:51.021Z,79.11
2023-03-08T02:59:22.778Z,79.53
2023-03-08T03:01:52.982Z,78.89
2023-03-08T03:04:21.369Z,79.26
2023-03-08T03:06:49.756Z,78.83
2023-03-08T03:09:18.359Z,78.77
2023-03-08T03:11:46.928Z,78.54
2023-03-08T03:14:15.635Z,78.61
2023-03-08T03:16:46.840Z,78.89
2023-03-08T03:19:15.284Z,79.14
2023-03-08T03:21:43.693Z,79.05
2023-03-08T03:24:12.144Z,79.35
2023-03-08T03:26:46.549Z,79.14
2023-03-08T03:29:14.901Z,78.93
2023-03-08T03:31:48.536Z,79.15
2023-03-08T03:34:18.076Z,78.36
2023-03-08T03:36:48.012Z,78.33
2023-03-08T03:39:17.465Z,78.63
2023-03-08T03:41:47.145Z,78.06
2023-03-08T03:44:16.343Z,78.49
2023-03-08T03:46:48.155Z,78.67
2023-03-08T03:49:20.352Z,77.86
2023-03-08T03:51:49.213Z,78.32
2023-03-08T03:54:40.132Z,77.68
2023-03-08T03:57:08.620Z,78.23
2023-03-08T03:59:40.742Z,78.36
2023-03-08T04:02:11.044Z,77.61
2023-03-08T04:04:51.688Z,77.93
2023-03-08T04:07:23.684Z,77.86
2023-03-08T04:10:02.355Z,78.05
2023-03-08T04:12:32.318Z,77.94
2023-03-08T04:15:00.732Z,77.67
2023-03-08T04:17:34.045Z,77.51
2023-03-08T04:20:04.353Z,77.66
2023-03-08T04:22:36.935Z,77.72
2023-03-08T04:25:16.179Z,77.66
2023-03-08T04:27:50.554Z,77.41
2023-03-08T04:30:19.660Z,77.57
2023-03-08T04:32:49.400Z,77.05
2023-03-08T04:35:18.404Z,77.04
2023-03-08T04:37:50.194Z,77.45
2023-03-08T04:40:21.258Z,77.19
2023-03-08T04:42:55.728Z,77.53
2023-03-08T04:45:29.385Z,77.25
2023-03-08T04:48:01.769Z,77.35
2023-03-08T04:50:31.071Z,77.08
2023-03-08T04:52:59.964Z,77.63
2023-03-08T04:55:29.556Z,77.11
2023-03-08T04:57:58.820Z,77.54
2023-03-08T05:00:30.626Z,77.39
2023-03-08T05:03:01.208Z,77.33
2023-03-08T05:05:30.244Z,77.64
2023-03-08T05:08:04.259Z,77.49
2023-03-08T05:10:34.282Z,77.59
2023-03-08T05:13:02.710Z,77.48
2023-03-08T05:15:31.038Z,78.14
2023-03-08T05:17:59.385Z,77.92
2023-03-08T05:20:29.164Z,78.13
2023-03-08T05:22:59.536Z,78.15
2023-03-08T05:25:44.785Z,78.02
2023-03-08T05:28:15.863Z,78.40
2023-03-08T05:30:45.856Z,78.82
2023-03-08T05:33:15.693Z,78.79
2023-03-08T05:35:45.457Z,78.49
2023-03-08T05:38:14.053Z,78.69
2023-03-08T05:40:42.916Z,78.79
2023-03-08T05:43:12.460Z,78.69
2023-03-08T05:45:41.103Z,78.98
2023-03-08T05:48:09.916Z,78.90
2023-03-08T05:50:39.301Z,78.95
2023-03-08T05:53:09.032Z,78.92
2023-03-08T05:55:38.089Z,79.19
2023-03-08T05:58:07.019Z,79.17
2023-03-08T06:00:35.873Z,79.21
2023-03-08T06:03:04.639Z,79.51
2023-03-08T06:05:36.537Z,79.20
2023-03-08T06:08:05.185Z,79.19
2023-03-08T06:10:35.780Z,79.60
2023-03-08T06:13:04.561Z,79.47
2023-03-08T06:15:33.102Z,79.47
2023-03-08T06:18:01.886Z,79.77
2023-03-08T06:20:31.585Z,79.51
2023-03-08T06:22:59.939Z,79.47
2023-03-08T06:25:29.298Z,79.16
2023-03-08T06:27:59.027Z,79.19
2023-03-08T06:30:33.174Z,79.14
2023-03-08T06:33:01.581Z,79.26
2023-03-08T06:35:30.062Z,79.41
2023-03-08T06:38:02.202Z,79.25
2023-03-08T06:40:30.679Z,79.41
2023-03-08T06:43:00.750Z,79.41
2023-03-08T06:45:29.256Z,79.80
2023-03-08T06:47:57.683Z,79.46
2023-03-08T06:50:26.104Z,79.50
2023-03-08T06:52:56.238Z,79.66
2023-03-08T06:55:36.948Z,79.28
2023-03-08T06:58:07.276Z,79.20
2023-03-08T07:00:36.624Z,79.11
2023-03-08T07:03:05.214Z,79.05
2023-03-08T07:05:33.614Z,79.14
2023-03-08T07:08:02.053Z,79.07
2023-03-08T07:10:30.597Z,79.74
2023-03-08T07:12:59.058Z,79.43
2023-03-08T07:15:28.927Z,79.91
2023-03-08T07:17:58.271Z,79.38
2023-03-08T07:20:28.579Z,79.49
2023-03-08T07:22:57.429Z,79.44
2023-03-08T07:25:25.996Z,79.22
2023-03-08T07:27:54.391Z,78.97
2023-03-08T07:30:23.118Z,79.14
2023-03-08T07:32:54.851Z,79.18
2023-03-08T07:35:23.214Z,79.07
2023-03-08T07:37:51.748Z,79.17
2023-03-08T07:40:20.468Z,79.08
2023-03-08T07:42:49.137Z,79.53
2023-03-08T07:45:36.325Z,79.49
2023-03-08T07:48:07.086Z,79.61
2023-03-08T07:50:35.973Z,79.56
2023-03-08T07:53:05.004Z,79.61
2023-03-08T07:55:33.494Z,79.41
2023-03-08T07:58:01.945Z,79.47
2023-03-08T08:00:30.594Z,79.91
2023-03-08T08:02:59.194Z,80.03
2023-03-08T08:05:29.168Z,80.16
2023-03-08T08:07:57.560Z,80.45
2023-03-08T08:10:26.218Z,79.93
2023-03-08T08:12:54.600Z,79.77
2023-03-08T08:15:25.309Z,79.92
2023-03-08T08:17:54.356Z,80.12
2023-03-08T08:20:22.833Z,80.42
2023-03-08T08:22:53.430Z,80.83
2023-03-08T08:25:22.751Z,81.00
2023-03-08T08:27:52.040Z,81.06
2023-03-08T08:30:21.403Z,81.22
2023-03-08T08:32:49.956Z,81.08
2023-03-08T08:35:18.560Z,81.24
2023-03-08T08:37:46.932Z,81.12
2023-03-08T08:40:17.146Z,80.79
2023-03-08T08:42:45.541Z,80.75
2023-03-08T08:45:13.905Z,80.41
2023-03-08T08:47:42.223Z,80.29
2023-03-08T08:50:14.054Z,80.45
2023-03-08T08:52:42.827Z,80.84
2023-03-08T08:55:11.768Z,80.70
2023-03-08T08:57:41.509Z,81.43
2023-03-08T09:00:13.101Z,81.29
2023-03-08T09:02:41.524Z,81.86
2023-03-08T09:05:10.943Z,82.27
2023-03-08T09:07:39.689Z,82.57
2023-03-08T09:10:10.502Z,82.18
2023-03-08T09:12:39.032Z,82.05
2023-03-08T09:15:11.747Z,81.97
2023-03-08T09:17:40.669Z,82.23
2023-03-08T09:20:11.731Z,82.15
2023-03-08T09:22:40.747Z,82.22
2023-03-08T09:25:11.186Z,82.36
2023-03-08T09:27:41.263Z,81.94
2023-03-08T09:30:16.112Z,81.70
2023-03-08T09:32:45.083Z,81.87
2023-03-08T09:35:15.252Z,82.10
2023-03-08T09:37:43.707Z,81.71
2023-03-08T09:40:21.622Z,81.59
2023-03-08T09:42:50.158Z,81.74
2023-03-08T09:45:25.167Z,81.62
2023-03-08T09:48:04.905Z,81.89
2023-03-08T09:50:43.705Z,81.70
2023-03-08T09:53:25.430Z,81.59
2023-03-08T09:55:59.115Z,80.94
2023-03-08T09:58:35.816Z,80.45
2023-03-08T10:01:23.216Z,80.27
2023-03-08T10:04:25.122Z,80.10
2023-03-08T10:07:18.310Z,80.22
2023-03-08T10:09:54.105Z,79.50
2023-03-08T10:12:30.409Z,78.71
2023-03-08T10:15:04.890Z,78.66
2023-03-08T10:17:44.634Z,79.38
2023-03-08T10:20:21.131Z,78.96
2023-03-08T10:22:58.525Z,78.63
2023-03-08T10:25:31.330Z,77.68
2023-03-08T10:28:02.420Z,79.13
2023-03-08T10:30:38.206Z,77.49
2023-03-08T10:33:12.416Z,77.54
2023-03-08T10:35:58.113Z,77.45
2023-03-08T10:38:30.117Z,77.71
2023-03-08T10:41:07.733Z,77.27
2023-03-08T10:43:41.421Z,76.55
2023-03-08T10:46:16.049Z,77.42
2023-03-08T10:48:46.688Z,76.85
2023-03-08T10:51:20.753Z,76.05
2023-03-08T10:53:56.516Z,75.20
2023-03-08T10:56:32.555Z,74.88
2023-03-08T10:59:01.456Z,75.63
2023-03-08T11:01:32.636Z,74.63
2023-03-08T11:04:06.155Z,74.33
2023-03-08T11:06:36.325Z,73.65
2023-03-08T11:09:20.046Z,72.58
2023-03-08T11:11:48.872Z,72.81
2023-03-08T11:14:18.144Z,72.92
2023-03-08T11:16:56.368Z,74.79
2023-03-08T11:20:14.799Z,74.60
2023-03-08T11:23:08.200Z,75.70
2023-03-08T11:25:46.913Z,75.06
2023-03-08T11:28:45.816Z,73.56
2023-03-08T11:31:23.776Z,73.01
2023-03-08T11:34:21.925Z,72.06
2023-03-08T11:37:01.728Z,72.17
2023-03-08T11:39:36.815Z,72.86
2023-03-08T11:42:16.558Z,73.51
2023-03-08T11:45:07.475Z,73.09
2023-03-08T11:48:08.545Z,73.17
2023-03-08T11:50:43.244Z,72.52
2023-03-08T11:53:23.706Z,72.70
2023-03-08T11:56:43.951Z,73.12
2023-03-08T11:59:21.089Z,73.31
2023-03-08T12:01:53.929Z,73.43
2023-03-08T12:04:32.283Z,73.65
2023-03-08T12:07:06.440Z,73.95
2023-03-08T12:09:43.739Z,72.85
2023-03-08T12:12:19.963Z,73.02
2023-03-08T12:14:58.251Z,72.53
2023-03-08T12:17:32.710Z,72.83
2023-03-08T12:20:01.179Z,72.21
2023-03-08T12:22:44.723Z,72.27
2023-03-08T12:25:25.721Z,72.03
2023-03-08T12:28:01.627Z,72.69
2023-03-08T12:30:49.996Z,72.96
2023-03-08T12:33:19.494Z,72.81
2023-03-08T12:35:55.208Z,73.30
2023-03-08T12:38:35.398Z,72.91
2023-03-08T12:41:08.086Z,72.53
2023-03-08T12:43:38.711Z,72.76
2023-03-08T12:46:10.605Z,72.77
2023-03-08T12:48:48.730Z,73.12
2023-03-08T12:51:26.913Z,73.58
2023-03-08T12:54:02.675Z,73.01
2023-03-08T12:56:35.784Z,73.52
2023-03-08T12:59:33.914Z,73.67
2023-03-08T13:02:23.933Z,74.14
2023-03-08T13:05:19.822Z,73.85
2023-03-08T13:08:21.351Z,73.83
2023-03-08T13:11:03.696Z,72.87
2023-03-08T13:13:44.889Z,73.06
2023-03-08T13:16:33.503Z,72.60
2023-03-08T13:19:26.096Z,72.15
2023-03-08T13:22:07.871Z,72.11
2023-03-08T13:24:48.497Z,71.98
2023-03-08T13:27:33.445Z,72.14
2023-03-08T13:30:23.673Z,72.18
2023-03-08T13:32:53.212Z,72.51
2023-03-08T13:35:22.479Z,72.00
2023-03-08T13:37:55.716Z,71.13
2023-03-08T13:40:25.812Z,71.11
2023-03-08T13:42:56.314Z,71.88
2023-03-08T13:45:27.395Z,71.66
2023-03-08T13:47:58.304Z,71.29
2023-03-08T13:50:32.641Z,71.47
2023-03-08T13:53:04.353Z,71.39
2023-03-08T13:55:36.581Z,71.56
2023-03-08T13:58:05.711Z,71.55
2023-03-08T14:00:36.941Z,71.58
2023-03-08T14:03:07.846Z,71.22
2023-03-08T14:05:44.157Z,71.79
2023-03-08T14:08:23.341Z,72.32
2023-03-08T14:10:57.924Z,72.28
2023-03-08T14:13:31.032Z,71.84
2023-03-08T14:16:03.343Z,72.38
2023-03-08T14:18:35.584Z,71.80
2023-03-08T14:21:08.593Z,72.21
2023-03-08T14:23:43.149Z,72.18
2023-03-08T14:26:34.267Z,73.12
2023-03-08T14:29:18.221Z,72.35
2023-03-08T14:32:01.631Z,72.79
2023-03-08T14:34:34.056Z,72.34
2023-03-08T14:37:07.090Z,72.46
2023-03-08T14:39:37.431Z,72.68
2023-03-08T14:42:20.034Z,72.22
2023-03-08T14:44:53.865Z,73.03
2023-03-08T14:47:27.504Z,73.30
2023-03-08T14:50:03.928Z,72.21
2023-03-08T14:52:36.071Z,72.75
2023-03-08T14:55:19.938Z,72.14
2023-03-08T14:57:48.362Z,72.60
2023-03-08T15:00:18.996Z,72.05
2023-03-08T15:02:48.964Z,72.84
2023-03-08T15:05:28.723Z,72.13
2023-03-08T15:08:00.483Z,72.81
2023-03-08T15:10:32.849Z,73.15
2023-03-08T15:13:01.986Z,73.35
2023-03-08T15:15:30.413Z,73.73
2023-03-08T15:18:00.125Z,74.39
2023-03-08T15:20:28.616Z,73.89
2023-03-08T15:23:00.858Z,74.40
2023-03-08T15:25:32.195Z,74.02
2023-03-08T15:28:00.551Z,74.50
2023-03-08T15:30:31.690Z,75.20
2023-03-08T15:33:02.645Z,74.99
2023-03-08T15:35:31.740Z,74.69
2023-03-08T15:38:00.379Z,75.48
2023-03-08T15:40:31.936Z,75.59
2023-03-08T15:43:01.022Z,75.74
2023-03-08T15:45:29.650Z,76.59
2023-03-08T15:48:01.078Z,77.14
2023-03-08T15:50:30.872Z,77.42
2023-03-08T15:52:59.878Z,78.14
2023-03-08T15:55:32.085Z,77.86
2023-03-08T15:58:00.849Z,78.11
2023-03-08T16:00:30.279Z,78.65
2023-03-08T16:03:00.190Z,78.36
2023-03-08T16:05:29.173Z,78.40
2023-03-08T16:07:59.974Z,78.30
2023-03-08T16:10:30.226Z,78.41
2023-03-08T16:12:58.923Z,78.50
2023-03-08T16:15:27.552Z,77.90
2023-03-08T16:17:56.682Z,77.59
2023-03-08T16:20:27.680Z,78.46
2023-03-08T16:22:57.719Z,78.56
2023-03-08T16:25:27.515Z,78.17
2023-03-08T16:27:57.237Z,78.31
2023-03-08T16:30:29.294Z,77.98
2023-03-08T16:33:00.260Z,78.26
2023-03-08T16:35:33.908Z,78.48
2023-03-08T16:38:04.046Z,78.58
2023-03-08T16:40:33.753Z,78.34
2023-03-08T16:43:02.314Z,79.32
2023-03-08T16:45:30.927Z,79.51
2023-03-08T16:47:59.428Z,79.06
2023-03-08T16:50:30.048Z,78.74
2023-03-08T16:52:59.571Z,79.09
2023-03-08T16:55:28.002Z,79.68
2023-03-08T16:57:56.524Z,79.36
2023-03-08T17:00:27.147Z,79.76
2023-03-08T17:02:55.525Z,79.87
2023-03-08T17:05:23.928Z,79.71
2023-03-08T17:07:53.653Z,80.01
2023-03-08T17:10:22.146Z,80.29
2023-03-08T17:12:50.846Z,80.40
2023-03-08T17:15:19.270Z,80.37
2023-03-08T17:17:47.652Z,80.06
2023-03-08T17:20:16.060Z,79.94
2023-03-08T17:22:45.058Z,79.71
2023-03-08T17:25:14.805Z,80.07
2023-03-08T17:27:43.159Z,79.96
2023-03-08T17:30:14.198Z,79.49
2023-03-08T17:32:42.842Z,79.46
2023-03-08T17:35:11.592Z,80.09
2023-03-08T17:37:41.618Z,79.95
2023-03-08T17:40:12.437Z,79.62
2023-03-08T17:42:42.535Z,80.23
2023-03-08T17:45:12.050Z,80.15
2023-03-08T17:47:40.638Z,80.18
2023-03-08T17:50:13.864Z,80.50
2023-03-08T17:52:42.637Z,80.51
2023-03-08T17:55:12.342Z,80.53
2023-03-08T17:57:42.177Z,81.12
2023-03-08T18:00:12.613Z,81.25
2023-03-08T18:02:40.993Z,81.28
2023-03-08T18:05:11.105Z,81.70
2023-03-08T18:07:41.884Z,81.75
2023-03-08T18:10:13.308Z,81.84
2023-03-08T18:12:43.174Z,82.03
2023-03-08T18:15:14.582Z,81.76
2023-03-08T18:17:43.144Z,81.37
2023-03-08T18:20:12.987Z,81.29
2023-03-08T18:22:41.963Z,81.35
2023-03-08T18:25:11.307Z,81.25
2023-03-08T18:27:40.361Z,81.53
2023-03-08T18:30:13.129Z,81.50
2023-03-08T18:32:41.929Z,81.42
2023-03-08T18:35:13.310Z,81.13
2023-03-08T18:37:41.795Z,81.41
2023-03-08T18:40:12.584Z,81.08
2023-03-08T18:42:41.146Z,81.09
2023-03-08T18:45:12.345Z,81.10
2023-03-08T18:47:40.801Z,80.87
2023-03-08T18:50:11.383Z,81.14
2023-03-08T18:52:39.830Z,81.30
2023-03-08T18:55:09.764Z,81.44
2023-03-08T18:57:39.196Z,81.44
2023-03-08T19:00:12.042Z,81.07
2023-03-08T19:02:40.565Z,81.80
2023-03-08T19:05:10.115Z,82.14
2023-03-08T19:07:41.173Z,81.77
2023-03-08T19:10:14.713Z,81.87
2023-03-08T19:12:43.922Z,81.80
2023-03-08T19:15:13.836Z,81.54
2023-03-08T19:17:42.435Z,81.75
2023-03-08T19:20:12.787Z,82.19
2023-03-08T19:22:41.315Z,81.95
2023-03-08T19:25:10.637Z,81.47
2023-03-08T19:27:39.251Z,81.14
2023-03-08T19:30:09.226Z,81.46
2023-03-08T19:32:40.987Z,81.51
2023-03-08T19:35:11.323Z,81.27
2023-03-08T19:37:39.970Z,81.08
2023-03-08T19:40:10.527Z,80.94
2023-03-08T19:42:38.945Z,81.51
2023-03-08T19:45:09.145Z,80.96
2023-03-08T19:47:38.919Z,80.92
2023-03-08T19:50:08.812Z,81.15
2023-03-08T19:52:37.400Z,81.26
2023-03-08T19:55:07.638Z,80.84
2023-03-08T19:57:36.485Z,80.86
2023-03-08T20:00:06.916Z,81.02
2023-03-08T20:02:45.677Z,81.20
2023-03-08T20:05:14.108Z,81.62
2023-03-08T20:07:42.453Z,81.80
2023-03-08T20:10:17.743Z,82.14
2023-03-08T20:12:47.119Z,81.45
2023-03-08T20:15:15.580Z,81.65
2023-03-08T20:17:47.895Z,81.54
2023-03-08T20:20:17.060Z,81.60
2023-03-08T20:22:45.493Z,81.46
2023-03-08T20:25:13.975Z,81.51
2023-03-08T20:27:43.654Z,82.13
2023-03-08T20:30:14.922Z,82.12
2023-03-08T20:32:44.772Z,81.96
2023-03-08T20:35:15.012Z,81.75
2023-03-08T20:37:43.875Z,81.51
2023-03-08T20:40:14.668Z,81.72
2023-03-08T20:42:43.412Z,81.73
2023-03-08T20:45:13.201Z,81.41
2023-03-08T20:47:41.611Z,81.74
2023-03-08T20:50:13.005Z,81.58
2023-03-08T20:52:41.369Z,81.61
2023-03-08T20:55:10.437Z,81.80
2023-03-08T20:57:39.260Z,81.78
2023-03-08T21:00:09.888Z,81.86
2023-03-08T21:02:38.749Z,82.22
2023-03-08T21:05:08.463Z,81.73
2023-03-08T21:07:38.337Z,81.87
2023-03-08T21:10:07.792Z,82.08
2023-03-08T21:12:38.719Z,81.94
2023-03-08T21:15:09.207Z,82.12
2023-03-08T21:17:39.946Z,82.39
2023-03-08T21:20:10.875Z,82.77
2023-03-08T21:22:40.607Z,82.41
2023-03-08T21:25:10.062Z,82.59
2023-03-08T21:27:38.529Z,82.26
2023-03-08T21:30:08.722Z,82.30
2023-03-08T21:32:37.287Z,82.49
2023-03-08T21:35:06.530Z,82.49
2023-03-08T21:37:35.664Z,82.57
2023-03-08T21:40:07.250Z,82.58
2023-03-08T21:42:35.820Z,82.01
2023-03-08T21:45:04.448Z,81.61
2023-03-08T21:47:32.980Z,81.52
2023-03-08T21:50:01.313Z,81.08
2023-03-08T21:52:29.763Z,81.03
2023-03-08T21:54:58.091Z,81.35
2023-03-08T21:57:27.867Z,81.83
2023-03-08T21:59:56.199Z,81.50
2023-03-08T22:02:24.581Z,81.45
2023-03-08T22:04:53.072Z,81.32
2023-03-08T22:07:21.506Z,81.44
2023-03-08T22:09:49.883Z,81.21
2023-03-08T22:12:19.719Z,82.00
2023-03-08T22:14:49.489Z,81.97
2023-03-08T22:17:17.796Z,81.91
2023-03-08T22:19:46.132Z,81.54
2023-03-08T22:22:14.459Z,81.68
2023-03-08T22:24:42.819Z,81.15
2023-03-08T22:27:13.099Z,80.89
2023-03-08T22:29:41.688Z,80.66
2023-03-08T22:32:11.718Z,80.36
2023-03-08T22:34:40.258Z,79.86
2023-03-08T22:37:08.955Z,79.87
2023-03-08T22:39:38.667Z,79.98
2023-03-08T22:42:07.414Z,79.72
2023-03-08T22:44:35.921Z,79.62
2023-03-08T22:47:04.385Z,79.69
2023-03-08T22:49:34.407Z,79.17
2023-03-08T22:52:03.243Z,79.34
2023-03-08T22:54:31.951Z,79.16
2023-03-08T22:57:00.320Z,79.47
2023-03-08T22:59:28.923Z,79.83
2023-03-08T23:01:57.506Z,79.81
2023-03-08T23:04:25.926Z,79.98
2023-03-08T23:06:55.889Z,79.94
2023-03-08T23:09:24.360Z,80.22
2023-03-08T23:11:52.750Z,80.11
2023-03-08T23:14:21.222Z,80.44
2023-03-08T23:16:49.720Z,80.38
2023-03-08T23:19:21.682Z,80.49
2023-03-08T23:21:50.385Z,80.43
2023-03-08T23:24:20.724Z,80.40
2023-03-08T23:26:49.218Z,80.40
2023-03-08T23:29:17.710Z,80.07
2023-03-08T23:31:47.639Z,80.33
2023-03-08T23:34:16.116Z,80.38
2023-03-08T23:36:44.547Z,80.64
2023-03-08T23:39:13.157Z,80.35
2023-03-08T23:41:42.983Z,80.31
2023-03-08T23:44:12.438Z,81.03
2023-03-08T23:46:41.192Z,80.71
2023-03-08T23:49:10.494Z,80.76
2023-03-08T23:51:38.877Z,80.44
2023-03-08T23:54:07.322Z,80.77
2023-03-08T23:56:38.804Z,80.44
2023-03-08T23:59:13.124Z,81.06
